Startpagina
METAR-TAF:

METAR-TAF

Vliegvelden :

Long Beach Airport (Daugherty Field)

Long Beach, Californië, Verenigde Staten

breedte: 33-48-42N, lengte: 118-08-47W, hoogte: 17 m

Actueel weer

Dit bericht is 29 minuten geleden gemaakt, om 10:53 UTC
Weinig wind
Temperatuur 14°C
Vochtigheid 88%
Druk 1015 hPa
Zicht: 6.4 km
Geheel bewolkt op 300 ft
rook

METAR: KLGB 301053Z AUTO 00000KT 4SM FU OVC003 14/12 A2997 RMK AO2 SLP148 T01440122

Tijdstip: 04:22 (11:22 UTC)

Verwachting

Dit bericht is 6 uur en het 2 minuten geleden gemaakt, om 05:20 UTC
Verwachting geldig van 30 om 06 UTC tot 31 om 06 UTC
Wind 3 kt uit variabele richting
Zicht: 10 km
Onbewolkt
Van 30 om 0900 UTC
Wind 3 kt uit variabele richting
Zicht: 8.0 km
Onbewolkt
rook
Van 30 om 1900 UTC
Wind 7 kt uit het zuiden
Zicht: 10 km
Onbewolkt
Van 31 om 0000 UTC
Wind 8 kt uit het westnoordwesten
Zicht: 10 km
Onbewolkt

TAF: KLGB 300520Z 3006/3106 VRB03KT P6SM SKC FM300900 VRB03KT 5SM FU SKC FM301900 18007KT P6SM SKC FM310000 29008KT P6SM SKC

Waarnemingen en weersverwachtingen van meer dan 4000 vliegvelden (METAR en TAF).

De beschikbare stations zijn de gele en rode punten op de kaart.

Ga met uw muis naar het station om de naam te zien.

Klik dan om waarnemingen en weersverwachtingen te zien.

kaart wijzigen: klik op de groene knoppen met een zwart kruis om in te zoomen, op de groene knop met een streepje om uit te zoomen of op de groene pijlen voor aangrenzende kaarten.


METAR-TAF: